الصفحة الرئيسية
METAR-TAF:

METAR-TAF

مطار :

سورغوت, روسيا

دائرة عرض: 61-15N, خط طول: 073-30E, ارتفاع: 44 متر

مراقبة الطقس الحالي

تاريخ ووقت الإصدار 40 دقيقة قبل الساعة 04:00UTC
ريح 2 عقدة من الغرب
درجة الحرارة -22°درجة مئوية
الرطوبة 84%
ضغط 1020 hPa
الرؤية 10 كم أو أكثر
الغيوم لا تقل 1500 م ولا وجود لمزنة ركامية السحاب الأسود

METAR: USRR 240400Z 27001MPS CAVOK M22/M24 Q1020 R25/39//32 NOSIG RMK QFE760

زمن: 09:40 (04:40 UTC)

توقعات

تاريخ ووقت الإصدار 2ساعات و 45 دقيقة قبل الساعة 01:55UTC
التوقعات صالحة من24 الساعة 03 UTC إلى 25 الساعة 03 UTC
ريح 6 عقدة من الغرب/الجنوب الغربي
الرؤية 10 كم أو أكثر
غيوم مفككة على ارتفاع 1100 قدم
غيوم مفككة على ارتفاع 2000 قدم, مزنة ركامية.
مؤقت
من 24 الساعة 03 UTC إلى 24 الساعة 09 UTC
الرؤية: 2100 متر
غيوم مفككة على ارتفاع 500 قدم
زخات ثلجية خفيفة
أصبح
من 24 الساعة 09 UTC إلى 24 الساعة 11 UTC
ريح 6 عقدة من الشمال الغربي

TAF: USRR 240155Z 2403/2503 25003MPS 9999 BKN011 BKN020CB TEMPO 2403/2409 2100 -SHSN BKN005 BKN15CB BECMG 2409/2411 32003MPS

أرصاد الطقس والتوقعات من أكثر من 4000 مطار (تقارير الطقس للمطار METAR والتنبؤ بالطقس بالمطارTAF).

المحطات المتاحة هي النقط الصفراء والحمراء على الخريطة.

حرك المؤشر فوق النقطة لمعرفة اسم المحطة.

ثم انقر لمعرفة أرصاد وتوقعات الطقس.

لتغيير الخارطة: اضغط على الأزرار الخضراء مع رمز الصليب الأسود للتكبير. على الزر الأخضر مع شرطة للتصغير، أو على الأسهم الخضراء للخرائط المجاورة.


METAR-TAF: